sensor_id;sensor_type;location;lat;lon;timestamp;P1;durP1;ratioP1;P2;durP2;ratioP2
60336;SDS011;46978;50.288;28.624;2024-02-14T00:00:58;8.85;;;5.22;;
60336;SDS011;46978;50.288;28.624;2024-02-14T00:02:00;6.53;;;3.89;;
60336;SDS011;46978;50.288;28.624;2024-02-14T00:03:02;8.11;;;4.59;;
60336;SDS011;46978;50.288;28.624;2024-02-14T00:04:03;8.69;;;4.84;;
60336;SDS011;46978;50.288;28.624;2024-02-14T00:05:05;9.02;;;5.36;;
60336;SDS011;46978;50.288;28.624;2024-02-14T00:06:08;9.50;;;5.33;;
60336;SDS011;46978;50.288;28.624;2024-02-14T00:07:09;10.83;;;6.15;;
60336;SDS011;46978;50.288;28.624;2024-02-14T00:08:11;10.42;;;5.67;;
60336;SDS011;46978;50.288;28.624;2024-02-14T00:09:12;11.29;;;5.81;;
60336;SDS011;46978;50.288;28.624;2024-02-14T00:10:15;12.25;;;6.57;;
60336;SDS011;46978;50.288;28.624;2024-02-14T00:11:16;9.67;;;5.29;;
60336;SDS011;46978;50.288;28.624;2024-02-14T00:12:18;8.23;;;5.31;;
60336;SDS011;46978;50.288;28.624;2024-02-14T00:13:19;11.23;;;5.74;;
60336;SDS011;46978;50.288;28.624;2024-02-14T00:14:21;7.85;;;5.06;;
60336;SDS011;46978;50.288;28.624;2024-02-14T00:15:22;8.74;;;5.62;;
60336;SDS011;46978;50.288;28.624;2024-02-14T00:16:24;8.59;;;4.89;;
60336;SDS011;46978;50.288;28.624;2024-02-14T00:17:25;7.99;;;4.68;;
60336;SDS011;46978;50.288;28.624;2024-02-14T00:18:27;7.98;;;4.84;;
60336;SDS011;46978;50.288;28.624;2024-02-14T00:19:29;8.76;;;5.26;;
60336;SDS011;46978;50.288;28.624;2024-02-14T00:20:31;7.57;;;4.23;;
60336;SDS011;46978;50.288;28.624;2024-02-14T00:21:32;7.97;;;4.82;;
60336;SDS011;46978;50.288;28.624;2024-02-14T00:22:33;6.96;;;4.88;;
60336;SDS011;46978;50.288;28.624;2024-02-14T00:23:35;10.19;;;5.32;;
60336;SDS011;46978;50.288;28.624;2024-02-14T00:24:37;8.49;;;5.53;;
60336;SDS011;46978;50.288;28.624;2024-02-14T00:25:38;7.86;;;4.54;;
60336;SDS011;46978;50.288;28.624;2024-02-14T00:26:40;7.80;;;4.35;;
60336;SDS011;46978;50.288;28.624;2024-02-14T00:27:41;7.56;;;4.33;;
60336;SDS011;46978;50.288;28.624;2024-02-14T00:28:43;7.27;;;4.10;;
60336;SDS011;46978;50.288;28.624;2024-02-14T00:29:44;10.61;;;4.97;;
60336;SDS011;46978;50.288;28.624;2024-02-14T00:30:46;5.36;;;3.86;;
60336;SDS011;46978;50.288;28.624;2024-02-14T00:31:47;6.26;;;3.95;;
60336;SDS011;46978;50.288;28.624;2024-02-14T00:32:49;6.98;;;4.09;;
60336;SDS011;46978;50.288;28.624;2024-02-14T00:33:51;6.57;;;3.89;;
60336;SDS011;46978;50.288;28.624;2024-02-14T00:34:52;9.96;;;4.71;;
60336;SDS011;46978;50.288;28.624;2024-02-14T00:35:54;8.16;;;4.90;;
60336;SDS011;46978;50.288;28.624;2024-02-14T00:36:56;8.37;;;4.72;;
60336;SDS011;46978;50.288;28.624;2024-02-14T00:37:57;7.95;;;5.00;;
60336;SDS011;46978;50.288;28.624;2024-02-14T00:38:58;6.61;;;4.10;;
60336;SDS011;46978;50.288;28.624;2024-02-14T00:40:00;7.04;;;4.10;;
60336;SDS011;46978;50.288;28.624;2024-02-14T00:41:02;6.58;;;4.01;;
60336;SDS011;46978;50.288;28.624;2024-02-14T00:42:03;5.17;;;3.51;;
60336;SDS011;46978;50.288;28.624;2024-02-14T00:43:05;7.54;;;3.88;;
60336;SDS011;46978;50.288;28.624;2024-02-14T00:44:06;5.35;;;3.36;;
60336;SDS011;46978;50.288;28.624;2024-02-14T00:45:08;4.85;;;3.20;;
60336;SDS011;46978;50.288;28.624;2024-02-14T00:46:15;6.91;;;3.79;;
60336;SDS011;46978;50.288;28.624;2024-02-14T00:47:17;5.23;;;3.53;;
60336;SDS011;46978;50.288;28.624;2024-02-14T00:48:19;7.33;;;3.86;;
60336;SDS011;46978;50.288;28.624;2024-02-14T00:49:20;8.26;;;4.37;;
60336;SDS011;46978;50.288;28.624;2024-02-14T00:50:22;6.37;;;4.27;;
60336;SDS011;46978;50.288;28.624;2024-02-14T00:51:23;4.65;;;3.09;;
60336;SDS011;46978;50.288;28.624;2024-02-14T00:52:25;4.68;;;3.00;;
60336;SDS011;46978;50.288;28.624;2024-02-14T00:53:26;5.16;;;3.41;;
60336;SDS011;46978;50.288;28.624;2024-02-14T00:54:28;6.45;;;2.86;;
60336;SDS011;46978;50.288;28.624;2024-02-14T00:55:31;5.67;;;3.60;;
60336;SDS011;46978;50.288;28.624;2024-02-14T00:56:33;5.84;;;3.69;;
60336;SDS011;46978;50.288;28.624;2024-02-14T00:57:35;6.11;;;3.14;;
60336;SDS011;46978;50.288;28.624;2024-02-14T00:58:36;5.59;;;3.23;;
60336;SDS011;46978;50.288;28.624;2024-02-14T00:59:38;5.98;;;3.44;;
60336;SDS011;46978;50.288;28.624;2024-02-14T01:00:40;4.94;;;2.94;;
60336;SDS011;46978;50.288;28.624;2024-02-14T01:01:41;6.75;;;3.81;;
60336;SDS011;46978;50.288;28.624;2024-02-14T01:02:43;4.56;;;3.14;;
60336;SDS011;46978;50.288;28.624;2024-02-14T01:03:45;5.13;;;3.29;;
60336;SDS011;46978;50.288;28.624;2024-02-14T01:04:46;4.19;;;2.73;;
60336;SDS011;46978;50.288;28.624;2024-02-14T01:05:48;5.20;;;3.21;;
60336;SDS011;46978;50.288;28.624;2024-02-14T01:06:49;5.26;;;3.02;;
60336;SDS011;46978;50.288;28.624;2024-02-14T01:09:12;5.19;;;2.91;;
60336;SDS011;46978;50.288;28.624;2024-02-14T01:10:14;3.64;;;2.57;;
60336;SDS011;46978;50.288;28.624;2024-02-14T01:11:15;4.27;;;2.63;;
60336;SDS011;46978;50.288;28.624;2024-02-14T01:12:17;5.25;;;2.85;;
60336;SDS011;46978;50.288;28.624;2024-02-14T01:13:18;4.56;;;2.73;;
60336;SDS011;46978;50.288;28.624;2024-02-14T01:14:20;5.29;;;3.16;;
60336;SDS011;46978;50.288;28.624;2024-02-14T01:15:21;3.96;;;2.72;;
60336;SDS011;46978;50.288;28.624;2024-02-14T01:16:24;4.07;;;2.64;;
60336;SDS011;46978;50.288;28.624;2024-02-14T01:17:26;4.26;;;2.75;;
60336;SDS011;46978;50.288;28.624;2024-02-14T01:18:27;4.90;;;2.76;;
60336;SDS011;46978;50.288;28.624;2024-02-14T01:19:29;4.41;;;2.20;;
60336;SDS011;46978;50.288;28.624;2024-02-14T01:20:30;3.50;;;2.36;;
60336;SDS011;46978;50.288;28.624;2024-02-14T01:21:32;3.34;;;2.20;;
60336;SDS011;46978;50.288;28.624;2024-02-14T01:22:36;4.06;;;2.44;;
60336;SDS011;46978;50.288;28.624;2024-02-14T01:23:38;4.67;;;3.22;;
60336;SDS011;46978;50.288;28.624;2024-02-14T01:24:39;6.33;;;3.91;;
60336;SDS011;46978;50.288;28.624;2024-02-14T01:25:41;5.79;;;3.76;;
60336;SDS011;46978;50.288;28.624;2024-02-14T01:26:43;6.45;;;3.54;;
60336;SDS011;46978;50.288;28.624;2024-02-14T01:27:44;6.28;;;3.12;;
60336;SDS011;46978;50.288;28.624;2024-02-14T01:28:46;6.63;;;3.69;;
60336;SDS011;46978;50.288;28.624;2024-02-14T01:29:47;4.61;;;2.74;;
60336;SDS011;46978;50.288;28.624;2024-02-14T01:30:49;5.60;;;2.94;;
60336;SDS011;46978;50.288;28.624;2024-02-14T01:31:51;5.26;;;2.54;;
60336;SDS011;46978;50.288;28.624;2024-02-14T01:32:52;5.62;;;2.69;;
60336;SDS011;46978;50.288;28.624;2024-02-14T01:33:54;3.60;;;2.13;;
60336;SDS011;46978;50.288;28.624;2024-02-14T01:34:55;4.99;;;3.02;;
60336;SDS011;46978;50.288;28.624;2024-02-14T01:35:57;5.44;;;3.01;;
60336;SDS011;46978;50.288;28.624;2024-02-14T01:36:58;5.46;;;3.25;;
60336;SDS011;46978;50.288;28.624;2024-02-14T01:38:00;4.04;;;2.63;;
60336;SDS011;46978;50.288;28.624;2024-02-14T01:39:01;4.26;;;2.77;;
60336;SDS011;46978;50.288;28.624;2024-02-14T01:40:03;4.60;;;2.80;;
60336;SDS011;46978;50.288;28.624;2024-02-14T01:41:06;6.05;;;2.97;;
60336;SDS011;46978;50.288;28.624;2024-02-14T01:42:08;4.07;;;2.62;;
60336;SDS011;46978;50.288;28.624;2024-02-14T01:43:10;5.76;;;3.60;;
60336;SDS011;46978;50.288;28.624;2024-02-14T01:44:11;5.31;;;2.67;;
60336;SDS011;46978;50.288;28.624;2024-02-14T01:45:13;4.08;;;2.33;;
60336;SDS011;46978;50.288;28.624;2024-02-14T01:46:14;4.24;;;2.32;;
60336;SDS011;46978;50.288;28.624;2024-02-14T01:47:17;3.34;;;2.18;;
60336;SDS011;46978;50.288;28.624;2024-02-14T01:48:18;3.20;;;2.05;;
60336;SDS011;46978;50.288;28.624;2024-02-14T01:49:20;4.31;;;2.50;;
60336;SDS011;46978;50.288;28.624;2024-02-14T01:50:22;4.19;;;2.31;;
60336;SDS011;46978;50.288;28.624;2024-02-14T01:51:24;4.65;;;2.42;;
60336;SDS011;46978;50.288;28.624;2024-02-14T01:52:26;4.94;;;2.46;;
60336;SDS011;46978;50.288;28.624;2024-02-14T01:53:27;3.71;;;2.41;;
60336;SDS011;46978;50.288;28.624;2024-02-14T01:54:31;4.22;;;2.52;;
60336;SDS011;46978;50.288;28.624;2024-02-14T01:55:35;4.34;;;2.30;;
60336;SDS011;46978;50.288;28.624;2024-02-14T01:56:37;3.93;;;2.67;;
60336;SDS011;46978;50.288;28.624;2024-02-14T01:57:39;4.23;;;2.81;;
60336;SDS011;46978;50.288;28.624;2024-02-14T01:58:41;4.40;;;2.78;;
60336;SDS011;46978;50.288;28.624;2024-02-14T01:59:43;6.41;;;3.72;;
60336;SDS011;46978;50.288;28.624;2024-02-14T02:00:45;6.35;;;3.08;;
60336;SDS011;46978;50.288;28.624;2024-02-14T02:01:47;4.19;;;2.70;;
60336;SDS011;46978;50.288;28.624;2024-02-14T02:02:48;4.74;;;2.76;;
60336;SDS011;46978;50.288;28.624;2024-02-14T02:03:50;4.62;;;2.81;;
60336;SDS011;46978;50.288;28.624;2024-02-14T02:04:52;4.42;;;2.73;;
60336;SDS011;46978;50.288;28.624;2024-02-14T02:05:53;4.56;;;2.90;;
60336;SDS011;46978;50.288;28.624;2024-02-14T02:06:56;4.60;;;2.87;;
60336;SDS011;46978;50.288;28.624;2024-02-14T02:07:57;3.75;;;2.54;;
60336;SDS011;46978;50.288;28.624;2024-02-14T02:08:59;4.19;;;2.71;;
60336;SDS011;46978;50.288;28.624;2024-02-14T02:10:01;4.53;;;2.81;;
60336;SDS011;46978;50.288;28.624;2024-02-14T02:11:03;5.32;;;3.23;;
60336;SDS011;46978;50.288;28.624;2024-02-14T02:12:05;3.62;;;2.34;;
60336;SDS011;46978;50.288;28.624;2024-02-14T02:13:07;4.37;;;2.53;;
60336;SDS011;46978;50.288;28.624;2024-02-14T02:14:09;3.12;;;2.10;;
60336;SDS011;46978;50.288;28.624;2024-02-14T02:15:11;3.44;;;2.23;;
60336;SDS011;46978;50.288;28.624;2024-02-14T02:16:12;3.45;;;1.95;;
60336;SDS011;46978;50.288;28.624;2024-02-14T02:17:14;3.21;;;2.16;;
60336;SDS011;46978;50.288;28.624;2024-02-14T02:18:16;3.73;;;2.30;;
60336;SDS011;46978;50.288;28.624;2024-02-14T02:19:17;3.13;;;1.75;;
60336;SDS011;46978;50.288;28.624;2024-02-14T02:20:19;3.56;;;2.13;;
60336;SDS011;46978;50.288;28.624;2024-02-14T02:21:21;3.89;;;2.04;;
60336;SDS011;46978;50.288;28.624;2024-02-14T02:22:23;3.44;;;1.94;;
60336;SDS011;46978;50.288;28.624;2024-02-14T02:23:25;3.32;;;2.24;;
60336;SDS011;46978;50.288;28.624;2024-02-14T02:24:27;5.46;;;2.34;;
60336;SDS011;46978;50.288;28.624;2024-02-14T02:25:31;4.07;;;2.46;;
60336;SDS011;46978;50.288;28.624;2024-02-14T02:26:33;3.17;;;2.07;;
60336;SDS011;46978;50.288;28.624;2024-02-14T02:27:34;2.71;;;1.84;;
60336;SDS011;46978;50.288;28.624;2024-02-14T02:28:36;3.00;;;1.63;;
60336;SDS011;46978;50.288;28.624;2024-02-14T02:29:39;3.43;;;1.89;;
60336;SDS011;46978;50.288;28.624;2024-02-14T02:30:41;4.97;;;2.01;;
60336;SDS011;46978;50.288;28.624;2024-02-14T02:31:43;5.22;;;2.51;;
60336;SDS011;46978;50.288;28.624;2024-02-14T02:32:45;4.81;;;2.51;;
60336;SDS011;46978;50.288;28.624;2024-02-14T02:33:47;4.52;;;2.42;;
60336;SDS011;46978;50.288;28.624;2024-02-14T02:34:49;4.59;;;2.43;;
60336;SDS011;46978;50.288;28.624;2024-02-14T02:35:51;4.19;;;2.56;;
60336;SDS011;46978;50.288;28.624;2024-02-14T02:36:54;4.05;;;2.15;;
60336;SDS011;46978;50.288;28.624;2024-02-14T02:37:56;3.89;;;2.33;;
60336;SDS011;46978;50.288;28.624;2024-02-14T02:38:58;3.74;;;2.21;;
60336;SDS011;46978;50.288;28.624;2024-02-14T02:40:00;2.66;;;1.85;;
60336;SDS011;46978;50.288;28.624;2024-02-14T02:41:03;3.28;;;1.85;;
60336;SDS011;46978;50.288;28.624;2024-02-14T02:42:05;3.31;;;1.87;;
60336;SDS011;46978;50.288;28.624;2024-02-14T02:43:07;3.45;;;1.87;;
60336;SDS011;46978;50.288;28.624;2024-02-14T02:44:09;2.92;;;1.74;;
60336;SDS011;46978;50.288;28.624;2024-02-14T02:45:11;2.71;;;1.77;;
60336;SDS011;46978;50.288;28.624;2024-02-14T02:46:14;2.96;;;1.75;;
60336;SDS011;46978;50.288;28.624;2024-02-14T02:47:16;2.43;;;1.53;;
60336;SDS011;46978;50.288;28.624;2024-02-14T02:48:18;2.59;;;1.47;;
60336;SDS011;46978;50.288;28.624;2024-02-14T02:49:20;2.89;;;1.65;;
60336;SDS011;46978;50.288;28.624;2024-02-14T02:50:23;3.36;;;2.05;;
60336;SDS011;46978;50.288;28.624;2024-02-14T02:51:25;5.69;;;3.77;;
60336;SDS011;46978;50.288;28.624;2024-02-14T02:52:27;3.49;;;2.07;;
60336;SDS011;46978;50.288;28.624;2024-02-14T02:53:29;3.47;;;1.99;;
60336;SDS011;46978;50.288;28.624;2024-02-14T02:54:31;3.59;;;1.75;;
60336;SDS011;46978;50.288;28.624;2024-02-14T02:55:35;3.71;;;1.93;;
60336;SDS011;46978;50.288;28.624;2024-02-14T02:56:37;4.94;;;2.35;;
60336;SDS011;46978;50.288;28.624;2024-02-14T02:57:40;4.06;;;2.24;;
60336;SDS011;46978;50.288;28.624;2024-02-14T02:58:43;3.14;;;1.76;;
60336;SDS011;46978;50.288;28.624;2024-02-14T02:59:45;4.93;;;2.20;;
60336;SDS011;46978;50.288;28.624;2024-02-14T03:00:47;3.31;;;1.77;;
60336;SDS011;46978;50.288;28.624;2024-02-14T03:01:49;3.33;;;1.71;;
60336;SDS011;46978;50.288;28.624;2024-02-14T03:02:51;3.23;;;1.71;;
60336;SDS011;46978;50.288;28.624;2024-02-14T03:03:53;3.21;;;1.59;;
60336;SDS011;46978;50.288;28.624;2024-02-14T03:04:55;3.44;;;1.89;;
60336;SDS011;46978;50.288;28.624;2024-02-14T03:05:57;2.87;;;1.76;;
60336;SDS011;46978;50.288;28.624;2024-02-14T03:06:59;4.85;;;2.19;;
60336;SDS011;46978;50.288;28.624;2024-02-14T03:08:01;3.32;;;1.57;;
60336;SDS011;46978;50.288;28.624;2024-02-14T03:09:03;3.64;;;1.99;;
60336;SDS011;46978;50.288;28.624;2024-02-14T03:10:06;2.66;;;1.65;;
60336;SDS011;46978;50.288;28.624;2024-02-14T03:11:08;3.83;;;1.92;;
60336;SDS011;46978;50.288;28.624;2024-02-14T03:12:10;3.27;;;1.55;;
60336;SDS011;46978;50.288;28.624;2024-02-14T03:13:12;3.05;;;1.82;;
60336;SDS011;46978;50.288;28.624;2024-02-14T03:14:16;3.58;;;1.72;;
60336;SDS011;46978;50.288;28.624;2024-02-14T03:15:18;3.79;;;1.71;;
60336;SDS011;46978;50.288;28.624;2024-02-14T03:16:21;2.52;;;1.61;;
60336;SDS011;46978;50.288;28.624;2024-02-14T03:17:22;2.95;;;1.65;;
60336;SDS011;46978;50.288;28.624;2024-02-14T03:18:24;2.65;;;1.61;;
60336;SDS011;46978;50.288;28.624;2024-02-14T03:19:26;3.77;;;1.78;;
60336;SDS011;46978;50.288;28.624;2024-02-14T03:20:29;3.37;;;1.83;;
60336;SDS011;46978;50.288;28.624;2024-02-14T03:21:31;2.79;;;1.54;;
60336;SDS011;46978;50.288;28.624;2024-02-14T03:22:34;3.51;;;1.77;;
60336;SDS011;46978;50.288;28.624;2024-02-14T03:23:36;3.06;;;1.79;;
60336;SDS011;46978;50.288;28.624;2024-02-14T03:24:38;3.34;;;1.71;;
60336;SDS011;46978;50.288;28.624;2024-02-14T03:25:40;2.51;;;1.50;;
60336;SDS011;46978;50.288;28.624;2024-02-14T03:26:42;3.75;;;1.72;;
60336;SDS011;46978;50.288;28.624;2024-02-14T03:27:44;2.89;;;1.75;;
60336;SDS011;46978;50.288;28.624;2024-02-14T03:28:46;3.11;;;2.00;;
60336;SDS011;46978;50.288;28.624;2024-02-14T03:29:48;2.69;;;1.71;;
60336;SDS011;46978;50.288;28.624;2024-02-14T03:30:50;2.96;;;1.59;;
60336;SDS011;46978;50.288;28.624;2024-02-14T03:31:52;3.13;;;1.62;;
60336;SDS011;46978;50.288;28.624;2024-02-14T03:32:54;2.47;;;1.50;;
60336;SDS011;46978;50.288;28.624;2024-02-14T03:33:56;2.13;;;1.39;;
60336;SDS011;46978;50.288;28.624;2024-02-14T03:34:58;2.99;;;1.69;;
60336;SDS011;46978;50.288;28.624;2024-02-14T03:36:00;4.09;;;1.83;;
60336;SDS011;46978;50.288;28.624;2024-02-14T03:37:02;2.85;;;1.75;;
60336;SDS011;46978;50.288;28.624;2024-02-14T03:38:05;2.84;;;1.69;;
60336;SDS011;46978;50.288;28.624;2024-02-14T03:39:07;3.79;;;1.71;;
60336;SDS011;46978;50.288;28.624;2024-02-14T03:40:09;2.75;;;1.69;;
60336;SDS011;46978;50.288;28.624;2024-02-14T03:41:12;2.94;;;1.86;;
60336;SDS011;46978;50.288;28.624;2024-02-14T03:42:14;2.87;;;1.80;;
60336;SDS011;46978;50.288;28.624;2024-02-14T03:43:16;2.90;;;1.77;;
60336;SDS011;46978;50.288;28.624;2024-02-14T03:44:18;4.20;;;1.83;;
60336;SDS011;46978;50.288;28.624;2024-02-14T03:45:20;2.76;;;1.54;;
60336;SDS011;46978;50.288;28.624;2024-02-14T03:46:22;3.69;;;1.68;;
60336;SDS011;46978;50.288;28.624;2024-02-14T03:47:24;2.87;;;1.54;;
60336;SDS011;46978;50.288;28.624;2024-02-14T03:48:26;2.53;;;1.44;;
60336;SDS011;46978;50.288;28.624;2024-02-14T03:49:28;3.14;;;1.88;;
60336;SDS011;46978;50.288;28.624;2024-02-14T03:50:31;4.09;;;1.74;;
60336;SDS011;46978;50.288;28.624;2024-02-14T03:51:33;4.21;;;1.53;;
60336;SDS011;46978;50.288;28.624;2024-02-14T03:52:35;3.71;;;2.03;;
60336;SDS011;46978;50.288;28.624;2024-02-14T03:53:37;3.02;;;1.61;;
60336;SDS011;46978;50.288;28.624;2024-02-14T03:54:39;3.23;;;1.89;;
60336;SDS011;46978;50.288;28.624;2024-02-14T03:55:41;2.77;;;1.61;;
60336;SDS011;46978;50.288;28.624;2024-02-14T03:56:43;3.35;;;1.59;;
60336;SDS011;46978;50.288;28.624;2024-02-14T03:57:45;3.16;;;1.59;;
60336;SDS011;46978;50.288;28.624;2024-02-14T03:58:48;4.01;;;1.78;;
60336;SDS011;46978;50.288;28.624;2024-02-14T03:59:50;4.22;;;2.28;;
60336;SDS011;46978;50.288;28.624;2024-02-14T04:00:52;3.50;;;1.87;;
60336;SDS011;46978;50.288;28.624;2024-02-14T04:01:54;4.26;;;1.97;;
60336;SDS011;46978;50.288;28.624;2024-02-14T04:02:56;4.13;;;2.11;;
60336;SDS011;46978;50.288;28.624;2024-02-14T04:03:58;3.27;;;1.69;;
60336;SDS011;46978;50.288;28.624;2024-02-14T04:05:00;3.31;;;1.98;;
60336;SDS011;46978;50.288;28.624;2024-02-14T04:06:02;2.75;;;1.63;;
60336;SDS011;46978;50.288;28.624;2024-02-14T04:07:05;2.84;;;1.77;;
60336;SDS011;46978;50.288;28.624;2024-02-14T04:08:07;3.79;;;1.98;;
60336;SDS011;46978;50.288;28.624;2024-02-14T04:09:09;3.91;;;2.25;;
60336;SDS011;46978;50.288;28.624;2024-02-14T04:10:13;3.96;;;2.00;;
60336;SDS011;46978;50.288;28.624;2024-02-14T04:11:15;3.41;;;2.00;;
60336;SDS011;46978;50.288;28.624;2024-02-14T04:12:17;3.82;;;2.07;;
60336;SDS011;46978;50.288;28.624;2024-02-14T04:13:19;5.03;;;2.35;;
60336;SDS011;46978;50.288;28.624;2024-02-14T04:14:21;2.95;;;1.88;;
60336;SDS011;46978;50.288;28.624;2024-02-14T04:15:23;4.07;;;1.95;;
60336;SDS011;46978;50.288;28.624;2024-02-14T04:16:25;4.13;;;2.16;;
60336;SDS011;46978;50.288;28.624;2024-02-14T04:17:27;4.57;;;2.24;;
60336;SDS011;46978;50.288;28.624;2024-02-14T04:18:29;3.67;;;2.00;;
60336;SDS011;46978;50.288;28.624;2024-02-14T04:19:31;3.51;;;1.93;;
60336;SDS011;46978;50.288;28.624;2024-02-14T04:20:33;4.02;;;1.97;;
60336;SDS011;46978;50.288;28.624;2024-02-14T04:21:37;4.81;;;2.56;;
60336;SDS011;46978;50.288;28.624;2024-02-14T04:22:39;3.89;;;2.01;;
60336;SDS011;46978;50.288;28.624;2024-02-14T04:23:41;3.54;;;2.06;;
60336;SDS011;46978;50.288;28.624;2024-02-14T04:24:43;3.90;;;2.01;;
60336;SDS011;46978;50.288;28.624;2024-02-14T04:25:45;4.31;;;2.05;;
60336;SDS011;46978;50.288;28.624;2024-02-14T04:26:47;4.91;;;2.26;;
60336;SDS011;46978;50.288;28.624;2024-02-14T04:27:49;5.71;;;2.69;;
60336;SDS011;46978;50.288;28.624;2024-02-14T04:28:51;4.58;;;2.71;;
60336;SDS011;46978;50.288;28.624;2024-02-14T04:29:53;5.34;;;3.07;;
60336;SDS011;46978;50.288;28.624;2024-02-14T04:30:55;4.83;;;2.90;;
60336;SDS011;46978;50.288;28.624;2024-02-14T04:31:57;3.89;;;2.30;;
60336;SDS011;46978;50.288;28.624;2024-02-14T04:32:59;4.17;;;2.43;;
60336;SDS011;46978;50.288;28.624;2024-02-14T04:34:01;4.01;;;2.10;;
60336;SDS011;46978;50.288;28.624;2024-02-14T04:35:03;4.20;;;2.32;;
60336;SDS011;46978;50.288;28.624;2024-02-14T04:36:06;3.84;;;2.05;;
60336;SDS011;46978;50.288;28.624;2024-02-14T04:37:08;4.45;;;2.00;;
60336;SDS011;46978;50.288;28.624;2024-02-14T04:38:10;3.71;;;2.10;;
60336;SDS011;46978;50.288;28.624;2024-02-14T04:39:12;3.16;;;1.89;;
60336;SDS011;46978;50.288;28.624;2024-02-14T04:40:14;3.99;;;2.31;;
60336;SDS011;46978;50.288;28.624;2024-02-14T04:41:17;4.37;;;2.50;;
60336;SDS011;46978;50.288;28.624;2024-02-14T04:42:19;3.18;;;1.60;;
60336;SDS011;46978;50.288;28.624;2024-02-14T04:43:21;4.32;;;2.16;;
60336;SDS011;46978;50.288;28.624;2024-02-14T04:44:23;3.87;;;2.37;;
60336;SDS011;46978;50.288;28.624;2024-02-14T04:45:25;3.52;;;1.91;;
60336;SDS011;46978;50.288;28.624;2024-02-14T04:46:27;4.85;;;2.99;;
60336;SDS011;46978;50.288;28.624;2024-02-14T04:47:29;5.73;;;2.75;;
60336;SDS011;46978;50.288;28.624;2024-02-14T04:48:31;4.35;;;3.09;;
60336;SDS011;46978;50.288;28.624;2024-02-14T04:49:34;3.65;;;2.14;;
60336;SDS011;46978;50.288;28.624;2024-02-14T04:50:36;3.79;;;2.39;;
60336;SDS011;46978;50.288;28.624;2024-02-14T04:51:38;3.12;;;2.17;;
60336;SDS011;46978;50.288;28.624;2024-02-14T04:52:40;4.06;;;2.23;;
60336;SDS011;46978;50.288;28.624;2024-02-14T04:53:42;3.91;;;2.55;;
60336;SDS011;46978;50.288;28.624;2024-02-14T04:54:44;3.89;;;2.61;;
60336;SDS011;46978;50.288;28.624;2024-02-14T04:55:46;3.61;;;2.53;;
60336;SDS011;46978;50.288;28.624;2024-02-14T04:56:48;4.19;;;2.71;;
60336;SDS011;46978;50.288;28.624;2024-02-14T04:57:50;3.85;;;2.62;;
60336;SDS011;46978;50.288;28.624;2024-02-14T04:58:55;3.87;;;2.43;;
60336;SDS011;46978;50.288;28.624;2024-02-14T04:59:58;4.10;;;2.52;;
60336;SDS011;46978;50.288;28.624;2024-02-14T05:01:00;3.67;;;2.03;;
60336;SDS011;46978;50.288;28.624;2024-02-14T05:02:02;3.07;;;1.89;;
60336;SDS011;46978;50.288;28.624;2024-02-14T05:03:04;3.97;;;2.61;;
60336;SDS011;46978;50.288;28.624;2024-02-14T05:04:10;3.92;;;2.67;;
60336;SDS011;46978;50.288;28.624;2024-02-14T05:05:12;3.49;;;2.43;;
60336;SDS011;46978;50.288;28.624;2024-02-14T05:06:15;4.28;;;2.22;;
60336;SDS011;46978;50.288;28.624;2024-02-14T05:07:17;3.28;;;2.08;;
60336;SDS011;46978;50.288;28.624;2024-02-14T05:08:19;3.58;;;1.97;;
60336;SDS011;46978;50.288;28.624;2024-02-14T05:09:21;3.47;;;2.09;;
60336;SDS011;46978;50.288;28.624;2024-02-14T05:10:23;3.41;;;2.34;;
60336;SDS011;46978;50.288;28.624;2024-02-14T05:11:25;3.35;;;1.99;;
60336;SDS011;46978;50.288;28.624;2024-02-14T05:12:27;3.81;;;2.19;;
60336;SDS011;46978;50.288;28.624;2024-02-14T05:13:30;3.77;;;2.11;;
60336;SDS011;46978;50.288;28.624;2024-02-14T05:14:32;3.55;;;2.29;;
60336;SDS011;46978;50.288;28.624;2024-02-14T05:15:34;4.32;;;2.41;;
60336;SDS011;46978;50.288;28.624;2024-02-14T05:16:36;3.59;;;2.24;;
60336;SDS011;46978;50.288;28.624;2024-02-14T05:17:37;3.47;;;2.04;;
60336;SDS011;46978;50.288;28.624;2024-02-14T05:18:39;3.11;;;1.99;;
60336;SDS011;46978;50.288;28.624;2024-02-14T05:19:41;3.33;;;2.09;;
60336;SDS011;46978;50.288;28.624;2024-02-14T05:20:43;3.79;;;2.39;;
60336;SDS011;46978;50.288;28.624;2024-02-14T05:21:45;3.16;;;1.86;;
60336;SDS011;46978;50.288;28.624;2024-02-14T05:22:46;4.42;;;2.17;;
60336;SDS011;46978;50.288;28.624;2024-02-14T05:23:48;3.04;;;1.96;;
60336;SDS011;46978;50.288;28.624;2024-02-14T05:24:49;3.28;;;1.99;;
60336;SDS011;46978;50.288;28.624;2024-02-14T05:25:51;3.94;;;2.03;;
60336;SDS011;46978;50.288;28.624;2024-02-14T05:26:53;3.23;;;2.16;;
60336;SDS011;46978;50.288;28.624;2024-02-14T05:27:54;3.37;;;1.90;;
60336;SDS011;46978;50.288;28.624;2024-02-14T05:28:56;4.72;;;2.26;;
60336;SDS011;46978;50.288;28.624;2024-02-14T05:29:57;3.29;;;2.01;;
60336;SDS011;46978;50.288;28.624;2024-02-14T05:30:59;3.04;;;2.00;;
60336;SDS011;46978;50.288;28.624;2024-02-14T05:32:01;3.23;;;1.74;;
60336;SDS011;46978;50.288;28.624;2024-02-14T05:33:03;2.74;;;1.66;;
60336;SDS011;46978;50.288;28.624;2024-02-14T05:34:05;2.57;;;1.61;;
60336;SDS011;46978;50.288;28.624;2024-02-14T05:36:28;3.08;;;1.72;;
60336;SDS011;46978;50.288;28.624;2024-02-14T05:37:29;3.34;;;1.84;;
60336;SDS011;46978;50.288;28.624;2024-02-14T05:38:31;3.03;;;1.92;;
60336;SDS011;46978;50.288;28.624;2024-02-14T05:39:32;3.04;;;1.81;;
60336;SDS011;46978;50.288;28.624;2024-02-14T05:40:34;2.61;;;1.66;;
60336;SDS011;46978;50.288;28.624;2024-02-14T05:41:36;2.66;;;1.53;;
60336;SDS011;46978;50.288;28.624;2024-02-14T05:42:37;3.19;;;1.67;;
60336;SDS011;46978;50.288;28.624;2024-02-14T05:43:39;2.51;;;1.53;;
60336;SDS011;46978;50.288;28.624;2024-02-14T05:44:40;3.86;;;1.89;;
60336;SDS011;46978;50.288;28.624;2024-02-14T05:45:42;2.63;;;1.69;;
60336;SDS011;46978;50.288;28.624;2024-02-14T05:46:43;3.04;;;1.89;;
60336;SDS011;46978;50.288;28.624;2024-02-14T05:47:45;3.59;;;1.90;;
60336;SDS011;46978;50.288;28.624;2024-02-14T05:48:46;3.04;;;1.94;;
60336;SDS011;46978;50.288;28.624;2024-02-14T05:49:48;3.53;;;2.05;;
60336;SDS011;46978;50.288;28.624;2024-02-14T05:50:49;3.55;;;2.19;;
60336;SDS011;46978;50.288;28.624;2024-02-14T05:51:51;2.64;;;1.89;;
60336;SDS011;46978;50.288;28.624;2024-02-14T05:52:53;4.36;;;2.58;;
60336;SDS011;46978;50.288;28.624;2024-02-14T05:53:54;6.28;;;3.11;;
60336;SDS011;46978;50.288;28.624;2024-02-14T05:54:56;3.96;;;1.89;;
60336;SDS011;46978;50.288;28.624;2024-02-14T05:55:57;6.78;;;2.55;;
60336;SDS011;46978;50.288;28.624;2024-02-14T05:56:59;6.50;;;2.50;;
60336;SDS011;46978;50.288;28.624;2024-02-14T05:58:01;5.11;;;2.45;;
60336;SDS011;46978;50.288;28.624;2024-02-14T05:59:02;6.19;;;2.79;;
60336;SDS011;46978;50.288;28.624;2024-02-14T06:00:04;3.46;;;2.14;;
60336;SDS011;46978;50.288;28.624;2024-02-14T06:01:07;3.39;;;1.84;;
60336;SDS011;46978;50.288;28.624;2024-02-14T06:02:09;3.87;;;2.01;;
60336;SDS011;46978;50.288;28.624;2024-02-14T06:03:10;4.51;;;2.04;;
60336;SDS011;46978;50.288;28.624;2024-02-14T06:04:11;4.91;;;2.14;;
60336;SDS011;46978;50.288;28.624;2024-02-14T06:05:13;4.71;;;2.26;;
60336;SDS011;46978;50.288;28.624;2024-02-14T06:06:15;4.71;;;2.11;;
60336;SDS011;46978;50.288;28.624;2024-02-14T06:07:17;4.39;;;2.18;;
60336;SDS011;46978;50.288;28.624;2024-02-14T06:08:18;13.21;;;8.01;;
60336;SDS011;46978;50.288;28.624;2024-02-14T06:09:20;11.89;;;7.25;;
60336;SDS011;46978;50.288;28.624;2024-02-14T06:10:22;4.33;;;2.94;;